createdAt,value
2023-05-28T00:00:07.458Z,97419.94
2023-05-28T00:02:39.180Z,97414.19
2023-05-28T00:05:06.323Z,97415.25
2023-05-28T00:07:32.976Z,97416.16
2023-05-28T00:09:59.488Z,97412.47
2023-05-28T00:12:26.546Z,97407.22
2023-05-28T00:14:53.642Z,97403.94
2023-05-28T00:17:20.305Z,97414.00
2023-05-28T00:19:46.761Z,97409.34
2023-05-28T00:22:13.646Z,97403.78
2023-05-28T00:24:40.352Z,97407.22
2023-05-28T00:27:09.480Z,97405.25
2023-05-28T00:29:36.040Z,97399.69
2023-05-28T00:32:02.952Z,97397.84
2023-05-28T00:34:29.809Z,97398.53
2023-05-28T00:36:56.442Z,97390.06
2023-05-28T00:39:23.216Z,97392.06
2023-05-28T00:42:01.755Z,97395.06
2023-05-28T00:44:28.708Z,97391.22
2023-05-28T00:46:56.607Z,97393.50
2023-05-28T00:49:24.327Z,97395.22
2023-05-28T00:51:51.113Z,97390.28
2023-05-28T00:54:17.730Z,97391.84
2023-05-28T00:56:44.307Z,97391.06
2023-05-28T00:59:13.389Z,97389.81
2023-05-28T01:01:40.727Z,97392.38
2023-05-28T01:04:07.377Z,97389.75
2023-05-28T01:06:34.189Z,97392.44
2023-05-28T01:09:00.941Z,97392.63
2023-05-28T01:11:28.011Z,97390.75
2023-05-28T01:13:55.530Z,97382.47
2023-05-28T01:16:22.609Z,97385.53
2023-05-28T01:18:49.771Z,97383.63
2023-05-28T01:21:17.495Z,97381.72
2023-05-28T01:23:48.577Z,97384.50
2023-05-28T01:26:16.910Z,97384.34
2023-05-28T01:28:47.473Z,97381.47
2023-05-28T01:31:15.607Z,97377.31
2023-05-28T01:33:43.755Z,97379.69
2023-05-28T01:36:25.138Z,97371.75
2023-05-28T01:38:54.014Z,97379.91
2023-05-28T01:41:21.309Z,97373.69
2023-05-28T01:43:48.528Z,97375.91
2023-05-28T01:46:15.995Z,97370.19
2023-05-28T01:48:43.010Z,97370.28
2023-05-28T01:51:11.211Z,97368.06
2023-05-28T01:53:37.755Z,97377.03
2023-05-28T01:56:04.714Z,97372.41
2023-05-28T01:58:31.640Z,97373.41
2023-05-28T02:01:12.943Z,97370.22
2023-05-28T02:03:39.564Z,97366.22
2023-05-28T02:06:06.222Z,97363.19
2023-05-28T02:08:32.755Z,97365.31
2023-05-28T02:11:01.010Z,97366.41
2023-05-28T02:13:28.825Z,97362.47
2023-05-28T02:15:56.800Z,97366.19
2023-05-28T02:18:23.595Z,97364.19
2023-05-28T02:20:51.319Z,97359.75
2023-05-28T02:23:17.907Z,97354.47
2023-05-28T02:25:47.139Z,97358.72
2023-05-28T02:28:13.659Z,97357.91
2023-05-28T02:30:40.443Z,97354.19
2023-05-28T02:33:08.125Z,97353.50
2023-05-28T02:35:34.612Z,97355.25
2023-05-28T02:38:01.079Z,97352.44
2023-05-28T02:40:27.674Z,97357.97
2023-05-28T02:42:54.189Z,97351.28
2023-05-28T02:45:20.686Z,97353.38
2023-05-28T02:47:47.273Z,97354.19
2023-05-28T02:50:14.087Z,97350.09
2023-05-28T02:52:53.749Z,97350.66
2023-05-28T02:55:20.342Z,97355.47
2023-05-28T02:57:47.529Z,97354.75
2023-05-28T03:00:14.823Z,97352.31
2023-05-28T03:02:42.099Z,97346.44
2023-05-28T03:05:08.847Z,97353.84
2023-05-28T03:07:35.538Z,97362.03
2023-05-28T03:10:02.585Z,97357.00
2023-05-28T03:12:33.150Z,97362.16
2023-05-28T03:14:59.663Z,97365.50
2023-05-28T03:17:26.340Z,97367.84
2023-05-28T03:19:52.819Z,97367.63
2023-05-28T03:22:21.692Z,97369.38
2023-05-28T03:24:48.375Z,97368.09
2023-05-28T03:27:17.619Z,97370.09
2023-05-28T03:29:44.662Z,97368.00
2023-05-28T03:32:18.553Z,97371.22
2023-05-28T03:34:45.118Z,97372.66
2023-05-28T03:37:11.861Z,97366.44
2023-05-28T03:39:40.511Z,97369.63
2023-05-28T03:42:08.588Z,97368.81
2023-05-28T03:44:35.865Z,97366.47
2023-05-28T03:47:03.367Z,97366.88
2023-05-28T03:49:30.149Z,97362.34
2023-05-28T03:51:58.014Z,97365.94
2023-05-28T03:54:26.203Z,97364.81
2023-05-28T03:56:52.657Z,97372.00
2023-05-28T03:59:21.106Z,97366.63
2023-05-28T04:01:48.122Z,97367.13
2023-05-28T04:04:14.773Z,97364.09
2023-05-28T04:06:41.374Z,97362.94
2023-05-28T04:09:08.325Z,97367.78
2023-05-28T04:11:36.117Z,97362.75
2023-05-28T04:14:02.793Z,97368.03
2023-05-28T04:16:29.337Z,97369.31
2023-05-28T04:18:56.149Z,97370.25
2023-05-28T04:21:23.312Z,97364.50
2023-05-28T04:23:50.075Z,97369.66
2023-05-28T04:26:17.304Z,97372.69
2023-05-28T04:28:43.828Z,97371.78
2023-05-28T04:31:10.961Z,97371.44
2023-05-28T04:33:37.585Z,97366.47
2023-05-28T04:36:04.771Z,97369.44
2023-05-28T04:38:34.238Z,97370.13
2023-05-28T04:41:01.216Z,97376.91
2023-05-28T04:43:30.619Z,97370.50
2023-05-28T04:45:59.938Z,97366.09
2023-05-28T04:48:27.051Z,97367.03
2023-05-28T04:50:54.883Z,97370.88
2023-05-28T04:53:21.600Z,97372.16
2023-05-28T04:55:48.173Z,97381.94
2023-05-28T04:58:15.126Z,97378.53
2023-05-28T05:00:41.624Z,97382.81
2023-05-28T05:03:09.640Z,97379.91
2023-05-28T05:05:36.198Z,97380.81
2023-05-28T05:08:02.963Z,97387.63
2023-05-28T05:10:29.639Z,97376.50
2023-05-28T05:12:56.585Z,97381.09
2023-05-28T05:15:23.083Z,97379.84
2023-05-28T05:17:49.481Z,97373.94
2023-05-28T05:20:15.927Z,97374.91
2023-05-28T05:22:42.429Z,97377.25
2023-05-28T05:25:09.135Z,97378.63
2023-05-28T05:27:37.600Z,97379.91
2023-05-28T05:30:06.406Z,97378.97
2023-05-28T05:32:33.258Z,97363.97
2023-05-28T05:34:59.780Z,97371.78
2023-05-28T05:37:26.510Z,97367.84
2023-05-28T05:40:28.940Z,97371.00
2023-05-28T05:43:15.765Z,97370.69
2023-05-28T05:45:42.458Z,97367.28
2023-05-28T05:48:10.995Z,97377.09
2023-05-28T05:50:56.861Z,97372.31
2023-05-28T05:53:24.382Z,97374.03
2023-05-28T05:55:51.821Z,97370.06
2023-05-28T05:58:18.946Z,97371.78
2023-05-28T06:00:46.297Z,97371.31
2023-05-28T06:03:13.377Z,97373.00
2023-05-28T06:05:59.151Z,97376.34
2023-05-28T06:08:49.667Z,97375.03
2023-05-28T06:11:24.424Z,97375.94
2023-05-28T06:13:51.770Z,97377.09
2023-05-28T06:16:19.033Z,97378.72
2023-05-28T06:18:45.692Z,97372.19
2023-05-28T06:21:12.287Z,97380.59
2023-05-28T06:23:38.833Z,97376.25
2023-05-28T06:26:06.538Z,97379.47
2023-05-28T06:28:33.095Z,97381.38
2023-05-28T06:31:00.220Z,97383.28
2023-05-28T06:33:26.863Z,97379.16
2023-05-28T06:35:53.711Z,97376.97
2023-05-28T06:38:20.616Z,97381.84
2023-05-28T06:40:47.306Z,97385.66
2023-05-28T06:43:14.006Z,97378.00
2023-05-28T06:45:58.518Z,97386.44
2023-05-28T06:48:25.051Z,97385.56
2023-05-28T06:50:51.601Z,97388.28
2023-05-28T06:53:18.214Z,97380.84
2023-05-28T06:55:45.511Z,97380.00
2023-05-28T06:58:24.179Z,97382.72
2023-05-28T07:01:09.074Z,97381.03
2023-05-28T07:03:49.621Z,97384.22
2023-05-28T07:06:20.333Z,97393.19
2023-05-28T07:08:47.532Z,97394.50
2023-05-28T07:11:15.325Z,97392.22
2023-05-28T07:13:46.327Z,97390.47
2023-05-28T07:16:12.988Z,97396.75
2023-05-28T07:18:40.344Z,97390.41
2023-05-28T07:21:06.888Z,97392.53
2023-05-28T07:23:39.016Z,97400.41
2023-05-28T07:26:06.301Z,97396.22
2023-05-28T07:28:32.860Z,97396.28
2023-05-28T07:30:59.302Z,97396.44
2023-05-28T07:33:26.050Z,97399.25
2023-05-28T07:35:53.413Z,97399.63
2023-05-28T07:38:20.124Z,97396.94
2023-05-28T07:40:51.179Z,97402.84
2023-05-28T07:43:31.919Z,97400.59
2023-05-28T07:46:03.993Z,97404.53
2023-05-28T07:48:37.875Z,97406.97
2023-05-28T07:51:18.212Z,97405.34
2023-05-28T07:53:49.334Z,97398.84
2023-05-28T07:56:21.897Z,97398.84
2023-05-28T07:58:48.552Z,97399.06
2023-05-28T08:01:18.065Z,97404.66
2023-05-28T08:03:44.877Z,97403.88
2023-05-28T08:06:12.690Z,97404.56
2023-05-28T08:08:39.508Z,97400.75
2023-05-28T08:11:08.106Z,97401.47
2023-05-28T08:13:34.622Z,97394.22
2023-05-28T08:16:05.821Z,97399.59
2023-05-28T08:18:48.188Z,97394.72
2023-05-28T08:21:15.292Z,97392.72
2023-05-28T08:23:42.339Z,97391.69
2023-05-28T08:26:10.063Z,97385.72
2023-05-28T08:28:38.102Z,97389.66
2023-05-28T08:31:05.093Z,97385.31
2023-05-28T08:33:54.714Z,97386.03
2023-05-28T08:36:21.577Z,97388.41
2023-05-28T08:38:50.220Z,97384.75
2023-05-28T08:41:20.302Z,97384.31
2023-05-28T08:43:46.998Z,97374.31
2023-05-28T08:46:14.030Z,97376.91
2023-05-28T08:48:59.256Z,97374.78
2023-05-28T08:51:28.602Z,97368.25
2023-05-28T08:53:56.762Z,97362.16
2023-05-28T08:56:29.240Z,97364.91
2023-05-28T08:58:56.373Z,97365.09
2023-05-28T09:01:23.715Z,97359.44
2023-05-28T09:04:05.781Z,97364.38
2023-05-28T09:06:39.302Z,97365.16
2023-05-28T09:09:11.898Z,97365.41
2023-05-28T09:11:44.032Z,97354.41
2023-05-28T09:14:12.853Z,97365.28
2023-05-28T09:16:43.909Z,97354.31
2023-05-28T09:19:18.371Z,97360.69
2023-05-28T09:21:56.867Z,97352.75
2023-05-28T09:24:26.939Z,97353.03
2023-05-28T09:27:12.395Z,97349.22
2023-05-28T09:29:40.363Z,97351.78
2023-05-28T09:32:06.877Z,97352.38
2023-05-28T09:34:34.601Z,97349.28
2023-05-28T09:37:01.214Z,97350.97
2023-05-28T09:39:28.601Z,97344.22
2023-05-28T09:42:10.256Z,97344.16
2023-05-28T09:44:40.274Z,97342.78
2023-05-28T09:47:17.621Z,97349.34
2023-05-28T09:49:48.493Z,97345.16
2023-05-28T09:52:22.234Z,97343.28
2023-05-28T09:54:52.943Z,97342.97
2023-05-28T09:57:28.541Z,97340.13
2023-05-28T09:59:56.662Z,97348.97
2023-05-28T10:02:43.193Z,97339.28
2023-05-28T10:05:12.012Z,97345.28
2023-05-28T10:07:41.538Z,97343.59
2023-05-28T10:10:11.319Z,97345.13
2023-05-28T10:12:41.093Z,97342.81
2023-05-28T10:15:08.508Z,97341.25
2023-05-28T10:17:36.949Z,97339.84
2023-05-28T10:20:06.034Z,97341.78
2023-05-28T10:22:33.339Z,97350.22
2023-05-28T10:25:01.765Z,97339.75
2023-05-28T10:27:34.770Z,97341.16
2023-05-28T10:30:04.871Z,97350.16
2023-05-28T10:32:39.290Z,97344.25
2023-05-28T10:35:06.367Z,97338.25
2023-05-28T10:37:32.946Z,97346.44
2023-05-28T10:40:00.435Z,97344.84
2023-05-28T10:42:27.170Z,97339.66
2023-05-28T10:45:07.707Z,97342.09
2023-05-28T10:47:35.849Z,97352.97
2023-05-28T10:50:18.300Z,97349.41
2023-05-28T10:53:08.573Z,97347.44
2023-05-28T10:55:55.474Z,97341.94
2023-05-28T10:58:29.569Z,97337.25
2023-05-28T11:01:19.897Z,97333.53
2023-05-28T11:03:54.192Z,97336.75
2023-05-28T11:06:21.336Z,97328.34
2023-05-28T11:08:49.419Z,97334.50
2023-05-28T11:11:18.427Z,97323.78
2023-05-28T11:13:47.162Z,97332.38
2023-05-28T11:16:16.511Z,97337.06
2023-05-28T11:19:02.972Z,97326.38
2023-05-28T11:21:29.612Z,97332.84
2023-05-28T11:24:01.158Z,97321.44
2023-05-28T11:26:28.491Z,97324.78
2023-05-28T11:28:55.360Z,97319.19
2023-05-28T11:31:22.323Z,97319.81
2023-05-28T11:33:51.808Z,97321.09
2023-05-28T11:36:20.782Z,97322.28
2023-05-28T11:38:47.968Z,97320.59
2023-05-28T11:41:14.485Z,97314.44
2023-05-28T11:43:41.052Z,97322.47
2023-05-28T11:46:07.725Z,97322.31
2023-05-28T11:48:38.966Z,97318.50
2023-05-28T11:51:06.489Z,97315.13
2023-05-28T11:53:43.536Z,97311.63
2023-05-28T11:56:11.222Z,97319.03
2023-05-28T11:58:41.383Z,97318.97
2023-05-28T12:01:08.353Z,97316.66
2023-05-28T12:03:36.027Z,97313.88
2023-05-28T12:06:02.880Z,97308.22
2023-05-28T12:08:29.499Z,97315.56
2023-05-28T12:11:07.245Z,97310.50
2023-05-28T12:13:39.008Z,97309.66
2023-05-28T12:16:11.079Z,97316.34
2023-05-28T12:18:44.235Z,97307.59
2023-05-28T12:21:12.569Z,97306.97
2023-05-28T12:23:39.085Z,97298.78
2023-05-28T12:26:10.103Z,97302.00
2023-05-28T12:28:40.758Z,97305.47
2023-05-28T12:31:08.553Z,97302.22
2023-05-28T12:33:35.626Z,97305.91
2023-05-28T12:36:02.270Z,97304.50
2023-05-28T12:38:29.088Z,97296.88
2023-05-28T12:40:56.104Z,97295.47
2023-05-28T12:43:23.035Z,97288.13
2023-05-28T12:45:49.649Z,97277.56
2023-05-28T12:48:16.469Z,97283.03
2023-05-28T12:50:43.041Z,97285.78
2023-05-28T12:53:09.659Z,97280.28
2023-05-28T12:55:36.299Z,97284.44
2023-05-28T12:58:03.101Z,97279.97
2023-05-28T13:00:29.922Z,97272.38
2023-05-28T13:02:56.498Z,97271.94
2023-05-28T13:05:23.449Z,97275.72
2023-05-28T13:07:50.093Z,97275.13
2023-05-28T13:10:16.758Z,97270.84
2023-05-28T13:12:43.266Z,97270.50
2023-05-28T13:15:10.192Z,97270.31
2023-05-28T13:17:36.793Z,97266.19
2023-05-28T13:20:07.613Z,97270.97
2023-05-28T13:22:36.627Z,97270.91
2023-05-28T13:25:04.197Z,97263.69
2023-05-28T13:27:31.475Z,97250.66
2023-05-28T13:29:58.594Z,97254.63
2023-05-28T13:32:25.966Z,97266.47
2023-05-28T13:34:52.999Z,97253.13
2023-05-28T13:37:19.632Z,97253.47
2023-05-28T13:39:47.285Z,97251.94
2023-05-28T13:42:14.216Z,97245.41
2023-05-28T13:44:41.216Z,97252.00
2023-05-28T13:47:08.278Z,97248.50
2023-05-28T13:49:34.877Z,97238.56
2023-05-28T13:52:01.526Z,97242.00
2023-05-28T13:54:28.128Z,97242.63
2023-05-28T13:56:54.650Z,97241.84
2023-05-28T13:59:21.178Z,97233.25
2023-05-28T14:01:47.983Z,97224.03
2023-05-28T14:04:14.671Z,97226.75
2023-05-28T14:06:41.170Z,97222.00
2023-05-28T14:09:07.678Z,97211.69
2023-05-28T14:11:58.467Z,97214.38
2023-05-28T14:14:20.629Z,97210.69
2023-05-28T14:16:47.243Z,97215.84
2023-05-28T14:19:13.750Z,97211.44
2023-05-28T14:21:41.139Z,97212.66
2023-05-28T14:24:07.752Z,97216.97
2023-05-28T14:26:34.262Z,97222.00
2023-05-28T14:29:00.790Z,97215.97
2023-05-28T14:31:27.701Z,97205.53
2023-05-28T14:33:54.363Z,97206.72
2023-05-28T14:36:21.276Z,97209.44
2023-05-28T14:38:48.040Z,97222.63
2023-05-28T14:41:14.569Z,97197.59
2023-05-28T14:43:41.093Z,97203.84
2023-05-28T14:46:07.660Z,97205.09
2023-05-28T14:48:34.257Z,97198.47
2023-05-28T14:51:02.497Z,97202.56
2023-05-28T14:53:29.385Z,97207.09
2023-05-28T14:55:56.051Z,97201.16
2023-05-28T14:58:23.948Z,97210.28
2023-05-28T15:00:50.455Z,97202.97
2023-05-28T15:03:17.164Z,97205.31
2023-05-28T15:05:43.845Z,97199.31
2023-05-28T15:08:11.420Z,97200.63
2023-05-28T15:10:37.938Z,97197.81
2023-05-28T15:13:04.778Z,97203.97
2023-05-28T15:15:31.289Z,97200.00
2023-05-28T15:17:57.798Z,97198.38
2023-05-28T15:20:24.450Z,97198.09
2023-05-28T15:22:51.053Z,97185.06
2023-05-28T15:25:20.630Z,97184.31
2023-05-28T15:27:47.553Z,97191.09
2023-05-28T15:30:15.456Z,97194.63
2023-05-28T15:32:42.461Z,97190.16
2023-05-28T15:35:09.758Z,97181.91
2023-05-28T15:37:36.491Z,97180.44
2023-05-28T15:40:03.749Z,97182.88
2023-05-28T15:42:30.466Z,97181.59
2023-05-28T15:44:57.157Z,97187.44
2023-05-28T15:47:23.727Z,97178.34
2023-05-28T15:49:50.267Z,97174.75
2023-05-28T15:52:16.823Z,97178.47
2023-05-28T15:54:43.587Z,97171.59
2023-05-28T15:57:10.826Z,97174.81
2023-05-28T15:59:43.952Z,97170.47
2023-05-28T16:02:14.666Z,97161.56
2023-05-28T16:04:41.225Z,97163.00
2023-05-28T16:07:08.039Z,97170.38
2023-05-28T16:09:35.690Z,97163.41
2023-05-28T16:12:03.326Z,97166.16
2023-05-28T16:14:35.048Z,97170.34
2023-05-28T16:17:02.575Z,97163.06
2023-05-28T16:19:29.431Z,97163.88
2023-05-28T16:21:56.136Z,97157.13
2023-05-28T16:24:22.645Z,97162.44
2023-05-28T16:26:51.114Z,97157.13
2023-05-28T16:29:21.621Z,97152.63
2023-05-28T16:31:48.630Z,97158.38
2023-05-28T16:34:16.177Z,97157.88
2023-05-28T16:36:43.545Z,97151.56
2023-05-28T16:39:10.243Z,97157.25
2023-05-28T16:41:36.930Z,97147.66
2023-05-28T16:44:03.625Z,97147.50
2023-05-28T16:46:30.332Z,97150.53
2023-05-28T16:48:57.125Z,97153.09
2023-05-28T16:51:23.999Z,97156.38
2023-05-28T16:53:51.668Z,97159.03
2023-05-28T16:56:18.695Z,97159.53
2023-05-28T16:58:45.189Z,97154.44
2023-05-28T17:01:12.122Z,97153.09
2023-05-28T17:03:38.739Z,97153.25
2023-05-28T17:06:05.495Z,97153.03
2023-05-28T17:08:32.113Z,97150.06
2023-05-28T17:10:58.718Z,97150.75
2023-05-28T17:13:25.268Z,97155.06
2023-05-28T17:15:51.885Z,97152.31
2023-05-28T17:18:18.516Z,97147.75
2023-05-28T17:20:45.179Z,97152.97
2023-05-28T17:23:11.796Z,97150.19
2023-05-28T17:25:38.336Z,97150.91
2023-05-28T17:28:04.892Z,97152.03
2023-05-28T17:30:31.377Z,97151.31
2023-05-28T17:32:57.908Z,97145.81
2023-05-28T17:35:24.436Z,97148.84
2023-05-28T17:37:51.104Z,97148.97
2023-05-28T17:40:17.636Z,97146.53
2023-05-28T17:42:44.163Z,97152.72
2023-05-28T17:45:11.005Z,97154.22
2023-05-28T17:47:37.591Z,97157.88
2023-05-28T17:50:04.402Z,97160.53
2023-05-28T17:52:31.220Z,97162.63
2023-05-28T17:54:57.809Z,97162.22
2023-05-28T17:57:24.419Z,97167.59
2023-05-28T17:59:51.354Z,97168.16
2023-05-28T18:02:17.909Z,97171.59
2023-05-28T18:04:44.476Z,97165.97
2023-05-28T18:07:10.918Z,97173.91
2023-05-28T18:09:37.475Z,97173.09
2023-05-28T18:12:04.180Z,97173.22
2023-05-28T18:14:31.270Z,97178.47
2023-05-28T18:17:02.348Z,97174.00
2023-05-28T18:19:29.835Z,97178.72
2023-05-28T18:21:56.529Z,97175.81
2023-05-28T18:24:23.148Z,97183.66
2023-05-28T18:26:49.740Z,97177.88
2023-05-28T18:29:16.239Z,97176.75
2023-05-28T18:31:44.612Z,97177.59
2023-05-28T18:34:11.302Z,97177.75
2023-05-28T18:36:38.403Z,97180.56
2023-05-28T18:39:05.405Z,97184.59
2023-05-28T18:41:31.986Z,97180.94
2023-05-28T18:43:58.574Z,97179.00
2023-05-28T18:46:25.586Z,97188.59
2023-05-28T18:48:52.162Z,97185.84
2023-05-28T18:51:18.731Z,97192.00
2023-05-28T18:53:45.450Z,97187.94
2023-05-28T18:56:11.992Z,97187.94
2023-05-28T18:58:38.620Z,97190.81
2023-05-28T19:01:05.723Z,97191.53
2023-05-28T19:03:32.271Z,97189.88
2023-05-28T19:05:58.896Z,97197.34
2023-05-28T19:08:25.695Z,97193.41
2023-05-28T19:10:52.446Z,97198.22
2023-05-28T19:13:19.084Z,97201.44
2023-05-28T19:15:46.314Z,97196.75
2023-05-28T19:18:13.020Z,97206.72
2023-05-28T19:20:40.213Z,97206.91
2023-05-28T19:23:07.080Z,97201.03
2023-05-28T19:25:33.753Z,97212.94
2023-05-28T19:28:00.435Z,97216.03
2023-05-28T19:30:27.128Z,97227.44
2023-05-28T19:32:53.697Z,97218.69
2023-05-28T19:35:20.265Z,97216.22
2023-05-28T19:37:50.006Z,97228.00
2023-05-28T19:40:16.522Z,97230.22
2023-05-28T19:42:43.096Z,97225.03
2023-05-28T19:45:10.153Z,97230.03
2023-05-28T19:47:37.088Z,97236.41
2023-05-28T19:50:05.636Z,97233.50
2023-05-28T19:52:32.165Z,97229.63
2023-05-28T19:54:59.730Z,97232.38
2023-05-28T19:57:26.743Z,97238.69
2023-05-28T19:59:55.364Z,97234.69
2023-05-28T20:02:27.332Z,97242.31
2023-05-28T20:04:54.506Z,97233.66
2023-05-28T20:07:21.281Z,97240.19
2023-05-28T20:09:47.825Z,97241.97
2023-05-28T20:12:14.333Z,97235.44
2023-05-28T20:14:40.897Z,97236.22
2023-05-28T20:17:09.982Z,97239.81
2023-05-28T20:19:40.379Z,97244.47
2023-05-28T20:22:07.232Z,97246.09
2023-05-28T20:24:36.360Z,97247.44
2023-05-28T20:27:03.261Z,97241.13
2023-05-28T20:29:35.886Z,97252.00
2023-05-28T20:32:05.413Z,97248.47
2023-05-28T20:34:32.825Z,97247.69
2023-05-28T20:37:01.006Z,97245.22
2023-05-28T20:39:29.078Z,97244.06
2023-05-28T20:41:56.823Z,97246.59
2023-05-28T20:44:23.604Z,97250.16
2023-05-28T20:46:52.952Z,97243.72
2023-05-28T20:49:19.907Z,97252.94
2023-05-28T20:51:46.906Z,97250.47
2023-05-28T20:54:13.411Z,97257.06
2023-05-28T20:56:41.233Z,97258.97
2023-05-28T20:59:08.169Z,97251.88
2023-05-28T21:01:35.364Z,97254.59
2023-05-28T21:04:02.019Z,97250.50
2023-05-28T21:06:29.904Z,97247.53
2023-05-28T21:08:56.920Z,97252.69
2023-05-28T21:11:24.622Z,97249.75
2023-05-28T21:13:53.525Z,97248.91
2023-05-28T21:16:20.061Z,97250.03
2023-05-28T21:18:46.671Z,97250.56
2023-05-28T21:21:13.558Z,97249.22
2023-05-28T21:23:40.104Z,97257.38
2023-05-28T21:26:06.745Z,97247.03
2023-05-28T21:28:33.262Z,97254.69
2023-05-28T21:31:01.380Z,97250.84
2023-05-28T21:33:28.360Z,97247.88
2023-05-28T21:35:56.107Z,97254.66
2023-05-28T21:38:26.384Z,97262.00
2023-05-28T21:40:53.484Z,97257.38
2023-05-28T21:43:23.010Z,97267.47
2023-05-28T21:45:49.609Z,97266.09
2023-05-28T21:48:17.055Z,97268.28
2023-05-28T21:50:44.036Z,97273.94
2023-05-28T21:53:13.652Z,97265.53
2023-05-28T21:55:41.011Z,97266.38
2023-05-28T21:58:07.606Z,97263.09
2023-05-28T22:00:34.391Z,97261.72
2023-05-28T22:03:01.234Z,97259.53
2023-05-28T22:05:27.842Z,97260.91
2023-05-28T22:07:54.742Z,97260.09
2023-05-28T22:10:21.277Z,97256.00
2023-05-28T22:12:50.657Z,97260.63
2023-05-28T22:15:17.292Z,97257.34
2023-05-28T22:17:43.877Z,97258.19
2023-05-28T22:20:11.180Z,97269.59
2023-05-28T22:22:39.077Z,97261.97
2023-05-28T22:25:08.095Z,97262.78
2023-05-28T22:27:35.782Z,97264.41
2023-05-28T22:30:03.957Z,97268.44
2023-05-28T22:32:31.000Z,97262.47
2023-05-28T22:34:57.621Z,97258.66
2023-05-28T22:37:24.468Z,97259.47
2023-05-28T22:39:50.963Z,97255.91
2023-05-28T22:42:17.400Z,97258.59
2023-05-28T22:44:43.911Z,97255.63
2023-05-28T22:47:10.933Z,97264.28
2023-05-28T22:49:37.538Z,97254.97
2023-05-28T22:52:04.843Z,97258.22
2023-05-28T22:54:32.112Z,97260.00
2023-05-28T22:56:58.732Z,97268.44
2023-05-28T22:59:25.537Z,97260.72
2023-05-28T23:01:52.359Z,97266.31
2023-05-28T23:04:18.867Z,97275.66
2023-05-28T23:06:45.476Z,97268.06
2023-05-28T23:09:12.267Z,97280.38
2023-05-28T23:11:42.946Z,97278.50
2023-05-28T23:14:10.136Z,97281.63
2023-05-28T23:16:36.956Z,97281.50
2023-05-28T23:19:03.565Z,97283.19
2023-05-28T23:21:30.769Z,97279.56
2023-05-28T23:23:57.392Z,97282.06
2023-05-28T23:26:23.847Z,97283.75
2023-05-28T23:28:52.123Z,97276.97
2023-05-28T23:31:19.425Z,97269.69
2023-05-28T23:33:46.081Z,97270.53
2023-05-28T23:36:12.872Z,97269.34
2023-05-28T23:38:39.506Z,97277.97
2023-05-28T23:41:06.053Z,97277.91
2023-05-28T23:43:32.502Z,97276.59
2023-05-28T23:45:59.312Z,97273.78
2023-05-28T23:48:26.297Z,97275.13
2023-05-28T23:50:52.802Z,97276.81
2023-05-28T23:53:19.324Z,97281.50
2023-05-28T23:55:45.896Z,97281.94
2023-05-28T23:58:12.382Z,97283.69
